Time;durP1;ratioP1;P1;durP2;ratioP2;P2;SDS_P1;SDS_P2;PMS_P1;PMS_P2;Temp;Humidity;BMP_temperature;BMP_pressure;BME280_temperature;BME280_humidity;BME280_pressure;Samples;Min_cycle;Max_cycle;Signal;HPM_P1;HPM_P2
2023/03/18 00:01:39;;;;;;;2.57;1.60;;;;;;;11.64;74.94;154348.94;5073637;28;20499;-78
2023/03/18 00:04:06;;;;;;;2.70;2.10;;;;;;;11.61;73.01;154341.16;5071775;28;20541;-78
2023/03/18 00:06:33;;;;;;;2.97;2.20;;;;;;;11.59;74.34;154337.28;5068465;28;20549;-78
2023/03/18 00:08:59;;;;;;;1.83;1.67;;;;;;;11.60;74.15;154339.84;5087786;28;20509;-78
2023/03/18 00:11:26;;;;;;;3.53;2.13;;;;;;;11.58;74.11;154334.66;5063955;28;20448;-78
2023/03/18 00:13:54;;;;;;;3.70;2.40;;;;;;;11.53;69.85;154320.41;5035881;28;20454;-78
2023/03/18 00:16:22;;;;;;;2.80;1.70;;;;;;;11.55;73.01;154325.59;5052192;28;20478;-78
2023/03/18 00:18:48;;;;;;;2.53;1.60;;;;;;;11.56;74.57;154329.50;5061359;28;20982;-78
2023/03/18 00:21:16;;;;;;;2.60;2.10;;;;;;;11.49;70.36;154310.06;5057347;28;20934;-78
2023/03/18 00:23:43;;;;;;;2.57;1.57;;;;;;;11.49;72.77;154310.06;5059540;28;20430;-78
2023/03/18 00:26:10;;;;;;;2.00;1.80;;;;;;;11.50;75.07;154313.94;5067073;28;20943;-78
2023/03/18 00:28:40;;;;;;;3.23;1.90;;;;;;;11.49;76.99;154310.06;5066315;28;20936;-78
2023/03/18 00:31:10;;;;;;;2.90;1.80;;;;;;;11.45;76.70;154299.69;5081403;28;20454;-78
2023/03/18 00:33:38;;;;;;;3.40;1.90;;;;;;;11.47;78.49;154306.16;5077115;28;20442;-78
2023/03/18 00:36:08;;;;;;;3.10;2.03;;;;;;;11.44;76.81;154297.06;5074270;28;20442;-78
2023/03/18 00:38:35;;;;;;;2.33;1.80;;;;;;;11.42;75.87;154291.91;5065080;28;20444;-78
2023/03/18 00:41:10;;;;;;;6.73;1.90;;;;;;;11.37;72.55;154278.94;5070392;28;20823;-78
2023/03/18 00:43:44;;;;;;;4.17;2.23;;;;;;;11.40;78.14;154286.72;5068236;28;20445;-78
2023/03/18 00:46:15;;;;;;;4.70;2.17;;;;;;;11.35;78.13;154273.78;5072498;28;20446;-78
2023/03/18 00:48:41;;;;;;;3.90;2.77;;;;;;;11.32;77.09;154266.00;5054017;28;20443;-78
2023/03/18 00:51:12;;;;;;;1.93;1.70;;;;;;;11.26;72.94;154250.44;5067103;28;20485;-78
2023/03/18 00:53:40;;;;;;;3.50;2.43;;;;;;;11.28;76.87;154256.91;5064272;28;20485;-78
2023/03/18 00:56:07;;;;;;;3.30;2.20;;;;;;;11.23;72.23;154242.66;5034595;28;20457;-77
2023/03/18 00:58:35;;;;;;;2.83;1.90;;;;;;;11.27;76.38;154253.03;5046439;28;20965;-78
2023/03/18 01:01:02;;;;;;;3.10;2.13;;;;;;;11.25;78.09;154249.13;5040217;28;20755;-78
2023/03/18 01:03:30;;;;;;;4.07;2.57;;;;;;;11.20;74.76;154234.94;5077003;28;20450;-78
2023/03/18 01:05:59;;;;;;;2.30;1.80;;;;;;;11.20;74.97;154234.94;5067237;28;20450;-77
2023/03/18 01:08:26;;;;;;;2.40;1.93;;;;;;;11.22;76.49;154240.09;5050523;28;20454;-78
2023/03/18 01:10:53;;;;;;;3.67;2.33;;;;;;;11.20;77.94;154234.94;5055446;28;20461;-77
2023/03/18 01:13:20;;;;;;;3.70;1.60;;;;;;;11.12;71.33;154214.19;5039720;28;20948;-77
2023/03/18 01:15:47;;;;;;;3.10;1.80;;;;;;;11.15;72.74;154221.94;5071784;28;20438;-78
2023/03/18 01:18:14;;;;;;;2.70;1.90;;;;;;;11.15;72.13;154223.22;5050948;28;20474;-88
2023/03/18 01:20:43;;;;;;;2.63;1.80;;;;;;;11.19;73.73;154232.31;5056902;28;20470;-87
2023/03/18 01:23:11;;;;;;;2.77;2.30;;;;;;;11.17;73.04;154227.16;5057055;28;20533;-87
2023/03/18 01:25:39;;;;;;;2.67;1.83;;;;;;;11.12;69.81;154214.19;5040417;28;20450;-89
2023/03/18 01:28:08;;;;;;;3.13;1.80;;;;;;;11.16;72.54;154224.53;5077439;28;20455;-89
2023/03/18 01:30:35;;;;;;;3.43;1.83;;;;;;;11.13;75.76;154218.06;5037521;28;21043;-88
2023/03/18 01:33:04;;;;;;;3.83;1.83;;;;;;;11.09;75.64;154206.41;5036629;28;20440;-89
2023/03/18 01:35:32;;;;;;;2.00;1.70;;;;;;;11.02;72.71;154190.84;5057968;28;20485;-89
2023/03/18 01:38:00;;;;;;;2.60;1.80;;;;;;;11.01;73.25;154188.25;5058567;28;20472;-90
2023/03/18 01:40:27;;;;;;;3.00;2.10;;;;;;;11.01;75.70;154188.25;5072880;28;20463;-87
2023/03/18 01:42:58;;;;;;;3.23;2.00;;;;;;;10.97;74.53;154177.91;5056035;28;20442;-89
2023/03/18 01:45:30;;;;;;;2.87;1.67;;;;;;;10.95;72.42;154171.44;5038974;28;20917;-89
2023/03/18 01:48:00;;;;;;;3.77;2.07;;;;;;;10.96;75.28;154175.31;5035346;28;20462;-89
2023/03/18 01:50:30;;;;;;;2.20;1.90;;;;;;;10.98;78.48;154179.22;5051157;28;20598;-89
2023/03/18 01:53:01;;;;;;;3.03;2.07;;;;;;;10.90;73.13;154159.78;5059222;28;20479;-89
2023/03/18 01:55:30;;;;;;;2.27;1.90;;;;;;;10.93;75.84;154166.28;5058810;28;21024;-89
2023/03/18 01:57:58;;;;;;;2.90;2.13;;;;;;;10.94;77.24;154170.13;5057242;28;20478;-89
2023/03/18 02:00:26;;;;;;;3.10;2.00;;;;;;;10.92;73.02;154163.66;5041229;28;21013;-89
2023/03/18 02:02:53;;;;;;;3.70;2.30;;;;;;;10.92;71.86;154164.97;5038027;28;20837;-88
2023/03/18 02:05:22;;;;;;;2.20;1.63;;;;;;;10.96;74.28;154174.06;5072819;28;20438;-89
2023/03/18 02:07:50;;;;;;;2.10;1.60;;;;;;;10.94;72.51;154170.13;5055479;28;20446;-89
2023/03/18 02:10:20;;;;;;;2.30;1.80;;;;;;;10.95;74.15;154172.75;5035383;28;20487;-89
2023/03/18 02:12:50;;;;;;;2.73;1.60;;;;;;;10.95;73.44;154172.75;5064517;28;20443;-89
2023/03/18 02:15:26;;;;;;;3.30;2.00;;;;;;;10.97;74.22;154176.59;5034416;28;20878;-89
2023/03/18 02:17:57;;;;;;;2.27;1.47;;;;;;;10.95;72.44;154172.75;5052896;28;20481;-89
2023/03/18 02:20:43;;;;;;;2.17;1.33;;;;;;;10.96;72.50;154174.06;5041964;28;20478;-89
2023/03/18 02:23:23;;;;;;;4.07;1.60;;;;;;;10.88;70.11;154154.56;5034966;28;20526;-90
2023/03/18 02:25:54;;;;;;;3.50;1.90;;;;;;;10.89;72.43;154157.19;5052478;28;20548;-89
2023/03/18 02:28:25;;;;;;;2.13;1.70;;;;;;;10.91;72.13;154161.06;5051637;28;20446;-89
2023/03/18 02:30:53;;;;;;;2.37;1.60;;;;;;;10.89;74.46;154157.19;5075451;28;20497;-89
2023/03/18 02:33:23;;;;;;;2.43;1.80;;;;;;;10.88;74.68;154154.56;5073146;28;20794;-89
2023/03/18 02:35:52;;;;;;;1.93;1.40;;;;;;;10.85;75.61;154146.84;5032134;28;20464;-89
2023/03/18 02:38:20;;;;;;;1.90;1.60;;;;;;;10.82;74.42;154139.06;5058734;28;20498;-89
2023/03/18 02:40:47;;;;;;;2.70;1.60;;;;;;;10.80;74.02;154132.59;5031768;28;20466;-89
2023/03/18 02:43:23;;;;;;;3.10;2.33;;;;;;;10.78;73.38;154128.69;5026478;28;20448;-89
2023/03/18 02:46:11;;;;;;;3.17;1.80;;;;;;;10.75;73.93;154120.91;5042250;28;20446;-89
2023/03/18 02:48:41;;;;;;;2.03;1.60;;;;;;;10.78;78.93;154128.69;5039136;28;20457;-89
2023/03/18 02:51:08;;;;;;;2.73;1.50;;;;;;;10.72;78.79;154113.13;5072078;28;20525;-88
2023/03/18 02:53:36;;;;;;;2.40;1.73;;;;;;;10.65;75.92;154095.03;5052485;28;20436;-88
2023/03/18 02:56:03;;;;;;;1.60;1.40;;;;;;;10.64;75.79;154092.47;5040347;28;20858;-89
2023/03/18 02:58:32;;;;;;;2.50;1.70;;;;;;;10.64;78.97;154092.47;5050091;28;20477;-89
2023/03/18 03:01:00;;;;;;;2.10;1.73;;;;;;;10.57;75.55;154073.00;5050082;28;20447;-89
2023/03/18 03:03:27;;;;;;;2.13;1.77;;;;;;;10.57;77.58;154074.31;5068125;28;20442;-89
2023/03/18 03:05:55;;;;;;;2.93;1.70;;;;;;;10.53;77.37;154063.97;5051639;28;20489;-89
2023/03/18 03:08:23;;;;;;;2.27;1.50;;;;;;;10.50;75.97;154056.19;5036294;28;20811;-89
2023/03/18 03:10:51;;;;;;;2.20;1.80;;;;;;;10.49;76.29;154052.28;5049752;28;20812;-89
2023/03/18 03:13:19;;;;;;;1.93;1.73;;;;;;;10.47;79.77;154048.41;5036593;28;20431;-89
2023/03/18 03:15:47;;;;;;;2.30;1.50;;;;;;;10.43;78.92;154038.09;5063559;28;20508;-89
2023/03/18 03:18:14;;;;;;;2.50;1.60;;;;;;;10.39;77.41;154027.69;5058792;28;20468;-89
2023/03/18 03:20:43;;;;;;;2.20;1.53;;;;;;;10.43;78.78;154036.78;5047542;28;20923;-89
2023/03/18 03:23:13;;;;;;;2.30;1.80;;;;;;;10.43;80.94;154036.78;5071478;28;20794;-89
2023/03/18 03:25:40;;;;;;;1.50;1.37;;;;;;;10.41;80.93;154032.88;5080218;28;20545;-89
2023/03/18 03:28:08;;;;;;;1.80;1.30;;;;;;;10.42;82.40;154035.47;5041869;28;20446;-89
2023/03/18 03:30:35;;;;;;;3.03;1.83;;;;;;;10.40;81.45;154030.31;5077948;28;20469;-89
2023/03/18 03:33:03;;;;;;;2.10;1.60;;;;;;;10.32;76.01;154010.91;5076861;28;20932;-89
2023/03/18 03:35:30;;;;;;;1.73;1.60;;;;;;;10.36;78.40;154021.22;5097806;28;20446;-89
2023/03/18 03:37:58;;;;;;;2.70;1.60;;;;;;;10.35;76.08;154018.63;5044206;28;20468;-89
2023/03/18 03:40:26;;;;;;;2.20;1.80;;;;;;;10.34;74.79;154014.75;5092553;28;20468;-89
2023/03/18 03:42:53;;;;;;;1.60;1.27;;;;;;;10.33;75.67;154012.16;5080467;28;20445;-88
2023/03/18 03:45:20;;;;;;;2.03;1.70;;;;;;;10.32;76.86;154009.59;5074938;28;20451;-89
2023/03/18 03:47:47;;;;;;;3.30;1.60;;;;;;;10.29;76.49;154001.81;5042379;28;20446;-89
2023/03/18 03:50:17;;;;;;;5.63;2.07;;;;;;;10.23;74.07;153986.28;5055526;28;20489;-89
2023/03/18 03:52:44;;;;;;;3.80;2.07;;;;;;;10.25;75.22;153992.75;5052246;28;20814;-89
2023/03/18 03:55:17;;;;;;;2.27;1.90;;;;;;;10.19;74.06;153977.19;5040453;28;20453;-89
2023/03/18 03:57:44;;;;;;;3.60;1.97;;;;;;;10.22;77.94;153983.66;5074284;28;20502;-79
2023/03/18 04:00:13;;;;;;;2.50;1.53;;;;;;;10.14;76.88;153963.00;5073144;28;20484;-79
2023/03/18 04:02:48;;;;;;;3.57;1.60;;;;;;;10.11;78.43;153955.19;5045961;28;20450;-79
2023/03/18 04:05:19;;;;;;;1.70;1.40;;;;;;;10.05;75.60;153939.63;5057219;28;20851;-79
2023/03/18 04:07:47;;;;;;;1.60;1.40;;;;;;;10.03;75.69;153935.78;5066810;28;20435;-78
2023/03/18 04:10:16;;;;;;;2.67;1.60;;;;;;;10.00;74.89;153928.00;5050772;28;20483;-79
2023/03/18 04:12:44;;;;;;;1.73;1.33;;;;;;;10.00;75.68;153926.69;5056131;28;20430;-79
2023/03/18 04:15:12;;;;;;;5.57;1.57;;;;;;;10.03;79.10;153935.78;5043488;28;20553;-79
2023/03/18 04:17:39;;;;;;;3.47;1.63;;;;;;;9.99;78.31;153924.09;5076808;28;20473;-79
2023/03/18 04:20:07;;;;;;;1.80;1.40;;;;;;;9.97;78.71;153918.91;5046285;28;20532;-79
2023/03/18 04:22:36;;;;;;;1.97;1.53;;;;;;;9.92;77.36;153907.28;5035480;28;20425;-79
2023/03/18 04:25:06;;;;;;;2.10;1.90;;;;;;;9.92;78.87;153906.00;5042057;28;20851;-79
2023/03/18 04:27:33;;;;;;;2.33;1.70;;;;;;;9.87;76.07;153893.06;5061270;28;20450;-79
2023/03/18 04:30:09;;;;;;;1.83;1.50;;;;;;;9.87;78.46;153893.06;5052275;28;20447;-79
2023/03/18 04:32:45;;;;;;;3.30;1.87;;;;;;;9.85;76.74;153889.16;5055098;28;20531;-79
2023/03/18 04:35:15;;;;;;;2.47;1.57;;;;;;;9.86;78.71;153890.44;5055261;28;20464;-79
2023/03/18 04:37:43;;;;;;;2.17;1.50;;;;;;;9.80;75.98;153877.50;5053225;28;20565;-79
2023/03/18 04:40:11;;;;;;;2.43;1.50;;;;;;;9.82;79.57;153882.69;5045676;28;20450;-78
2023/03/18 04:42:38;;;;;;;2.60;1.80;;;;;;;9.80;78.92;153877.50;5060706;28;20508;-79
2023/03/18 04:45:07;;;;;;;3.10;1.87;;;;;;;9.75;78.53;153864.56;5041944;28;20442;-78
2023/03/18 04:47:34;;;;;;;2.30;1.63;;;;;;;9.77;81.45;153869.75;5045008;28;20479;-79
2023/03/18 04:50:03;;;;;;;4.00;2.07;;;;;;;9.69;77.96;153849.03;5049450;28;20459;-79
2023/03/18 04:52:30;;;;;;;2.13;1.73;;;;;;;9.70;80.15;153851.63;5050138;28;20526;-79
2023/03/18 04:54:59;;;;;;;2.83;1.70;;;;;;;9.67;79.08;153843.88;5063722;28;20794;-79
2023/03/18 04:57:26;;;;;;;2.57;1.90;;;;;;;9.65;78.06;153837.41;5026175;28;20530;-78
2023/03/18 04:59:55;;;;;;;3.00;1.80;;;;;;;9.63;77.40;153833.53;5038873;28;20955;-79
2023/03/18 05:02:23;;;;;;;3.33;1.70;;;;;;;9.61;80.10;153827.06;5027728;28;20495;-79
2023/03/18 05:04:50;;;;;;;2.27;1.77;;;;;;;9.56;78.51;153815.41;5047089;28;20969;-79
2023/03/18 05:07:17;;;;;;;4.33;2.07;;;;;;;9.50;77.63;153799.91;5029655;28;20453;-79
2023/03/18 05:09:54;;;;;;;3.37;1.87;;;;;;;9.51;78.95;153801.16;5023369;28;1084554;-78
2023/03/18 05:12:22;;;;;;;4.30;1.80;;;;;;;9.46;76.47;153788.22;5047252;28;21791;-78
2023/03/18 05:14:49;;;;;;;2.80;1.63;;;;;;;9.45;78.27;153786.94;5049622;28;20500;-78
2023/03/18 05:17:16;;;;;;;3.37;1.80;;;;;;;9.40;77.62;153774.00;5071031;28;20533;-78
2023/03/18 05:19:52;;;;;;;2.40;1.77;;;;;;;9.41;77.81;153775.31;5045336;28;20451;-78
2023/03/18 05:22:21;;;;;;;2.40;1.73;;;;;;;9.40;78.44;153774.00;5047309;28;20443;-78
2023/03/18 05:24:53;;;;;;;3.30;2.00;;;;;;;9.38;77.20;153768.84;5046708;28;20863;-78
2023/03/18 05:27:23;;;;;;;2.70;2.17;;;;;;;9.36;77.18;153763.66;5054227;28;20442;-78
2023/03/18 05:30:16;;;;;;;3.83;1.70;;;;;;;9.35;77.45;153759.75;5058887;28;20469;-78
2023/03/18 05:32:47;;;;;;;1.90;1.60;;;;;;;9.31;77.11;153750.75;5047705;28;20502;-79
2023/03/18 05:35:16;;;;;;;2.43;1.77;;;;;;;9.32;78.14;153752.03;5061014;28;20872;-78
2023/03/18 05:37:49;;;;;;;3.10;1.83;;;;;;;9.29;78.89;153745.59;5065173;28;20470;-78
2023/03/18 05:40:16;;;;;;;2.30;1.40;;;;;;;9.29;81.47;153745.59;5043256;28;20438;-78
2023/03/18 05:42:57;;;;;;;2.70;1.73;;;;;;;9.24;82.33;153732.59;5030660;28;20536;-78
2023/03/18 05:45:33;;;;;;;2.60;1.83;;;;;;;9.17;79.50;153714.50;5031210;28;20442;-78
2023/03/18 05:48:00;;;;;;;2.20;1.90;;;;;;;9.18;81.65;153718.41;5049396;28;20448;-78
2023/03/18 05:50:29;;;;;;;2.40;2.00;;;;;;;9.10;79.38;153697.72;5063530;28;20459;-78
2023/03/18 05:52:56;;;;;;;2.90;1.70;;;;;;;9.08;78.72;153691.25;5039737;28;20447;-78
2023/03/18 05:55:24;;;;;;;3.13;2.00;;;;;;;9.10;81.38;153696.41;5029656;28;20603;-79
2023/03/18 05:57:51;;;;;;;2.07;1.60;;;;;;;9.08;82.42;153691.25;5064118;28;20447;-78
2023/03/18 06:00:21;;;;;;;2.90;2.00;;;;;;;9.04;82.30;153682.19;5062081;28;20941;-78
2023/03/18 06:02:51;;;;;;;2.90;1.93;;;;;;;9.00;79.40;153671.81;5043588;28;20458;-78
2023/03/18 06:05:19;;;;;;;2.73;2.00;;;;;;;9.00;77.95;153670.56;5051352;28;20446;-78
2023/03/18 06:07:47;;;;;;;2.10;1.70;;;;;;;9.00;78.14;153670.56;5059947;28;20451;-78
2023/03/18 06:10:14;;;;;;;2.57;1.97;;;;;;;9.01;78.97;153673.13;5053739;28;20544;-78
2023/03/18 06:12:43;;;;;;;2.43;1.60;;;;;;;9.03;82.05;153679.59;5059413;28;20454;-78
2023/03/18 06:15:12;;;;;;;2.20;1.40;;;;;;;9.03;80.87;153678.28;5061247;28;20535;-78
2023/03/18 06:17:41;;;;;;;2.90;1.60;;;;;;;9.03;80.23;153678.28;5052709;28;20978;-78
2023/03/18 06:20:10;;;;;;;2.63;1.70;;;;;;;9.05;81.64;153683.50;5059809;28;20534;-78
2023/03/18 06:22:38;;;;;;;4.43;1.90;;;;;;;9.06;80.59;153687.34;5057265;28;20469;-78
2023/03/18 06:25:07;;;;;;;2.53;1.60;;;;;;;9.10;81.04;153696.41;5045620;28;20450;-79
2023/03/18 06:27:36;;;;;;;3.30;2.53;;;;;;;9.11;78.82;153698.97;5038081;28;20454;-79
2023/03/18 06:30:05;;;;;;;2.70;2.30;;;;;;;9.16;80.18;153711.91;5052532;28;20475;-78
2023/03/18 06:32:34;;;;;;;4.00;2.20;;;;;;;9.16;77.80;153711.91;5058428;28;20478;-78
2023/03/18 06:35:02;;;;;;;3.17;2.73;;;;;;;9.20;80.48;153722.28;5033289;28;21031;-78
2023/03/18 06:37:31;;;;;;;3.10;2.80;;;;;;;9.24;79.23;153731.34;5041318;28;20451;-78
2023/03/18 06:39:58;;;;;;;3.07;2.77;;;;;;;9.34;78.87;153758.50;5056422;28;20976;-79
2023/03/18 06:42:24;;;;;;;2.67;2.37;;;;;;;9.50;79.17;153799.91;5040091;28;21374;-79
2023/03/18 06:45:01;;;;;;;1.80;1.70;;;;;;;9.68;79.68;153846.47;5048776;28;20458;-78
2023/03/18 06:47:40;;;;;;;3.63;1.90;;;;;;;9.80;77.21;153876.22;5041108;28;20478;-78
2023/03/18 06:50:09;;;;;;;3.40;2.17;;;;;;;9.91;77.71;153904.69;5058725;28;20520;-78
2023/03/18 06:52:37;;;;;;;3.73;1.73;;;;;;;10.00;76.61;153928.00;5055734;28;20548;-79
2023/03/18 06:55:13;;;;;;;2.73;1.77;;;;;;;10.10;77.73;153952.56;5057079;28;20451;-79
2023/03/18 06:57:43;;;;;;;2.80;1.87;;;;;;;10.16;77.70;153968.16;5047605;28;20528;-79
2023/03/18 07:00:13;;;;;;;2.37;1.70;;;;;;;10.23;75.59;153987.56;5041299;28;20478;-79
2023/03/18 07:02:41;;;;;;;2.23;1.83;;;;;;;10.31;74.67;154007.00;5047331;28;20446;-79
2023/03/18 07:05:12;;;;;;;2.80;1.70;;;;;;;10.39;75.69;154027.69;5059991;28;20451;-79
2023/03/18 07:07:40;;;;;;;3.20;1.80;;;;;;;10.55;77.82;154069.13;5054630;28;20512;-79
2023/03/18 07:10:10;;;;;;;2.47;1.83;;;;;;;10.86;78.78;154149.41;5057293;28;20469;-79
2023/03/18 07:12:39;;;;;;;3.03;1.73;;;;;;;11.16;77.00;154224.53;5034439;28;21511;-79
2023/03/18 07:15:07;;;;;;;3.57;2.07;;;;;;;11.55;73.31;154325.59;5041647;28;20457;-79
2023/03/18 07:17:36;;;;;;;2.00;1.80;;;;;;;11.93;72.73;154424.16;5046396;28;20444;-79
2023/03/18 07:20:04;;;;;;;2.00;1.63;;;;;;;12.29;69.00;154514.84;5059678;28;20583;-79
2023/03/18 07:22:32;;;;;;;5.50;1.90;;;;;;;12.60;74.32;154596.56;5052414;28;20451;-79
2023/03/18 07:24:59;;;;;;;4.00;2.10;;;;;;;12.75;68.42;154635.50;5041640;28;20522;-79
2023/03/18 07:27:26;;;;;;;2.80;1.90;;;;;;;13.00;65.41;154699.03;5056620;28;20454;-79
2023/03/18 07:29:54;;;;;;;1.70;1.50;;;;;;;13.28;67.48;154770.44;5043410;28;20952;-87
2023/03/18 07:32:21;;;;;;;2.90;1.83;;;;;;;13.55;66.65;154840.53;5035102;28;20457;-87
2023/03/18 07:34:47;;;;;;;2.90;1.53;;;;;;;13.84;63.59;154915.81;5045814;28;20474;-87
2023/03/18 07:37:15;;;;;;;3.23;1.70;;;;;;;14.10;61.56;154982.03;5069589;28;20446;-87
2023/03/18 07:39:43;;;;;;;1.93;1.70;;;;;;;14.32;61.98;155039.16;5066234;28;20474;-87
2023/03/18 07:42:10;;;;;;;2.23;1.33;;;;;;;14.46;59.89;155075.53;5044587;28;20431;-87
2023/03/18 07:44:37;;;;;;;2.07;1.80;;;;;;;14.74;58.92;155145.69;5064831;28;20596;-87
2023/03/18 07:47:25;;;;;;;4.73;1.90;;;;;;;14.95;57.89;155200.25;5045939;28;20463;-85
2023/03/18 07:49:52;;;;;;;2.43;1.80;;;;;;;15.15;57.96;155253.53;5058916;28;20463;-86
2023/03/18 07:52:19;;;;;;;2.47;1.90;;;;;;;15.40;55.83;155317.22;5059220;28;20457;-86
2023/03/18 07:54:47;;;;;;;2.43;1.97;;;;;;;15.58;54.35;155364.03;5069305;28;20549;-86
2023/03/18 07:57:14;;;;;;;5.40;1.80;;;;;;;15.66;56.34;155384.84;5044382;28;20481;-86
2023/03/18 07:59:40;;;;;;;3.20;1.70;;;;;;;15.76;53.42;155410.84;5055811;28;20475;-86
2023/03/18 08:02:08;;;;;;;3.33;2.00;;;;;;;15.90;57.35;155444.63;5056910;28;20530;-86
2023/03/18 08:04:35;;;;;;;6.10;1.80;;;;;;;16.01;54.59;155473.25;5042378;28;20446;-86
2023/03/18 08:07:05;;;;;;;4.63;2.53;;;;;;;16.23;54.92;155530.47;5047365;28;20426;-87
2023/03/18 08:09:32;;;;;;;2.17;1.83;;;;;;;16.38;54.25;155569.47;5047676;28;20967;-87
2023/03/18 08:12:00;;;;;;;3.30;2.17;;;;;;;16.57;53.19;155618.97;5037822;28;20454;-87
2023/03/18 08:14:26;;;;;;;2.60;1.90;;;;;;;16.72;52.48;155656.66;5038406;28;20454;-87
2023/03/18 08:16:53;;;;;;;2.27;2.07;;;;;;;16.73;51.80;155660.53;5026917;28;20455;-87
2023/03/18 08:19:20;;;;;;;4.27;2.00;;;;;;;16.82;52.16;155682.69;5021860;28;20497;-87
2023/03/18 08:21:47;;;;;;;3.40;2.37;;;;;;;16.85;48.59;155691.81;5034881;28;21946;-87
2023/03/18 08:24:14;;;;;;;3.73;2.00;;;;;;;16.83;51.26;155685.31;5025037;28;20464;-87
2023/03/18 08:26:40;;;;;;;2.53;1.70;;;;;;;16.80;47.85;155677.47;5035799;28;20584;-87
2023/03/18 08:29:08;;;;;;;3.97;1.80;;;;;;;16.75;50.61;155665.78;5036210;28;20454;-87
2023/03/18 08:31:35;;;;;;;3.53;1.80;;;;;;;16.68;51.03;155646.28;5036948;28;20509;-87
2023/03/18 08:34:02;;;;;;;2.77;1.77;;;;;;;16.65;50.93;155639.78;5026914;28;20778;-86
2023/03/18 08:36:28;;;;;;;3.10;2.10;;;;;;;16.65;52.86;155639.78;5036614;28;20453;-86
2023/03/18 08:38:55;;;;;;;3.40;1.60;;;;;;;16.56;50.86;155616.34;5020600;28;20495;-87
2023/03/18 08:41:24;;;;;;;1.90;1.70;;;;;;;16.54;51.61;155609.84;5021313;28;20447;-86
2023/03/18 08:43:51;;;;;;;1.80;1.50;;;;;;;16.40;50.04;155574.66;5021139;28;20452;-86
2023/03/18 08:46:19;;;;;;;2.27;1.40;;;;;;;16.33;52.82;155556.47;5018904;28;20463;-86
2023/03/18 08:48:46;;;;;;;3.20;2.07;;;;;;;16.35;49.23;155561.66;5033018;28;20452;-86
2023/03/18 08:51:13;;;;;;;1.83;1.33;;;;;;;16.39;51.95;155573.34;5019318;28;20532;-86
2023/03/18 08:53:40;;;;;;;1.57;1.33;;;;;;;16.33;51.32;155556.47;5021984;28;20463;-86
2023/03/18 08:56:08;;;;;;;2.83;1.50;;;;;;;16.22;48.79;155527.84;5018320;28;20482;-86
2023/03/18 08:58:35;;;;;;;3.43;1.60;;;;;;;16.12;47.05;155501.88;5035797;28;20981;-86
2023/03/18 09:01:04;;;;;;;3.90;1.93;;;;;;;16.18;46.14;155517.44;5036191;28;20458;-86
2023/03/18 09:03:32;;;;;;;1.90;1.50;;;;;;;16.23;50.03;155531.75;5035828;28;20451;-86
2023/03/18 09:05:59;;;;;;;3.23;1.43;;;;;;;16.07;51.90;155490.13;5004238;28;20455;-86
2023/03/18 09:08:28;;;;;;;7.20;1.50;;;;;;;16.10;47.73;155497.94;5023567;28;20823;-85
2023/03/18 09:10:55;;;;;;;1.80;1.37;;;;;;;16.24;47.68;155533.06;5059619;28;20451;-86
2023/03/18 09:13:22;;;;;;;1.73;1.40;;;;;;;16.20;48.74;155522.66;5056773;28;20900;-86
2023/03/18 09:15:49;;;;;;;2.40;1.40;;;;;;;16.08;47.98;155491.44;5059873;28;20460;-85
2023/03/18 09:18:17;;;;;;;1.63;1.50;;;;;;;16.05;47.93;155483.63;5060822;28;20797;-86
2023/03/18 09:20:46;;;;;;;1.70;1.60;;;;;;;16.22;53.20;155527.84;5061804;28;20485;-86
2023/03/18 09:23:14;;;;;;;2.07;1.37;;;;;;;16.16;46.95;155513.53;5039444;28;20963;-86
2023/03/18 09:25:49;;;;;;;2.57;1.80;;;;;;;16.11;46.88;155499.25;5059826;28;20454;-85
2023/03/18 09:28:15;;;;;;;3.67;1.63;;;;;;;16.29;45.15;155546.06;5063894;28;20800;-86
2023/03/18 09:30:43;;;;;;;2.63;1.33;;;;;;;16.40;44.33;155574.66;5050933;28;20549;-85
2023/03/18 09:33:10;;;;;;;1.63;1.40;;;;;;;16.45;43.90;155587.66;5044676;28;20512;-86
2023/03/18 09:35:37;;;;;;;3.40;1.70;;;;;;;16.37;44.87;155568.16;5058574;28;20520;-86
2023/03/18 09:38:07;;;;;;;2.27;1.67;;;;;;;16.34;45.87;155559.06;5044137;28;20454;-86
2023/03/18 09:40:35;;;;;;;1.53;1.33;;;;;;;16.25;47.32;155536.97;5059994;28;20475;-87
2023/03/18 09:43:14;;;;;;;3.77;1.30;;;;;;;16.17;45.03;155514.88;5060309;28;20549;-87
2023/03/18 09:45:48;;;;;;;2.00;1.50;;;;;;;16.33;44.60;155557.78;5056699;28;20478;-86
2023/03/18 09:48:42;;;;;;;1.60;1.30;;;;;;;16.32;44.23;155553.84;5058700;28;20495;-86
2023/03/18 09:51:16;;;;;;;3.73;2.07;;;;;;;16.34;46.97;155559.06;5056412;28;20974;-86
2023/03/18 09:53:48;;;;;;;2.93;1.80;;;;;;;16.22;51.11;155527.84;5049707;28;20459;-88
2023/03/18 09:56:18;;;;;;;2.90;1.97;;;;;;;16.20;47.89;155522.66;5058481;28;20805;-86
2023/03/18 09:58:52;;;;;;;5.07;2.30;;;;;;;16.25;47.79;155535.66;5060344;28;21040;-86
2023/03/18 10:01:21;;;;;;;4.97;2.20;;;;;;;16.28;47.46;155543.47;5057539;28;20445;-86
2023/03/18 10:03:50;;;;;;;3.53;2.20;;;;;;;16.23;47.24;155531.75;5058486;28;21406;-85
2023/03/18 10:06:19;;;;;;;2.87;2.00;;;;;;;16.15;47.57;155509.66;5059152;28;20451;-85
2023/03/18 10:08:53;;;;;;;1.93;1.83;;;;;;;16.13;47.62;155505.75;5047851;28;20476;-85
2023/03/18 10:11:23;;;;;;;3.00;2.20;;;;;;;16.18;46.85;155517.44;5041620;28;20513;-86
2023/03/18 10:14:00;;;;;;;3.43;2.60;;;;;;;16.21;46.83;155525.25;5059676;28;20560;-86
2023/03/18 10:16:30;;;;;;;2.90;1.63;;;;;;;16.10;46.06;155497.94;5042445;28;20477;-86
2023/03/18 10:18:57;;;;;;;3.50;2.00;;;;;;;16.04;46.72;155482.38;5042550;28;20500;-86
2023/03/18 10:21:30;;;;;;;4.63;2.00;;;;;;;16.14;45.70;155507.06;5059853;28;20457;-86
2023/03/18 10:24:09;;;;;;;2.93;2.07;;;;;;;16.12;46.25;155501.88;5057788;28;20492;-86
2023/03/18 10:26:42;;;;;;;2.47;1.70;;;;;;;16.06;46.17;155486.25;5040690;28;20441;-87
2023/03/18 10:29:41;;;;;;;2.40;2.00;;;;;;;16.04;45.99;155481.06;5048974;28;20893;-86
2023/03/18 10:32:19;;;;;;;3.40;1.90;;;;;;;16.09;45.63;155494.06;5057299;28;20445;-88
2023/03/18 10:34:57;;;;;;;3.37;2.50;;;;;;;16.04;46.50;155482.38;5054410;28;20912;-86
2023/03/18 10:37:34;;;;;;;2.47;1.90;;;;;;;16.11;46.29;155499.25;5056420;28;20455;-87
2023/03/18 10:40:11;;;;;;;2.40;1.60;;;;;;;16.08;44.99;155492.75;5055964;28;20474;-88
2023/03/18 10:42:39;;;;;;;3.00;2.00;;;;;;;16.15;45.16;155509.66;5057715;28;21129;-87
2023/03/18 10:45:09;;;;;;;2.43;2.10;;;;;;;16.03;44.38;155478.44;5075045;28;20458;-87
2023/03/18 10:47:39;;;;;;;3.10;1.60;;;;;;;16.03;43.48;155478.44;5057287;28;20535;-88
2023/03/18 10:50:17;;;;;;;2.00;1.70;;;;;;;16.02;44.81;155477.13;5059456;28;20512;-88
2023/03/18 10:52:48;;;;;;;3.20;2.00;;;;;;;16.09;45.39;155494.06;5056652;28;21185;-88
2023/03/18 10:55:19;;;;;;;2.43;2.23;;;;;;;16.28;45.02;155543.47;5060563;28;20468;-87
2023/03/18 10:57:46;;;;;;;2.57;1.47;;;;;;;16.20;42.67;155523.94;5045656;28;20442;-87
2023/03/18 11:00:26;;;;;;;3.00;1.77;;;;;;;16.08;43.55;155491.44;5078278;28;20476;-88
2023/03/18 11:02:53;;;;;;;2.47;1.47;;;;;;;16.14;43.11;155508.38;5057875;28;20531;-87
2023/03/18 11:05:23;;;;;;;1.60;1.40;;;;;;;16.11;43.46;155499.25;5055366;28;20503;-87
2023/03/18 11:07:58;;;;;;;3.00;1.77;;;;;;;16.24;43.01;155534.34;5047106;28;20810;-85
2023/03/18 11:10:29;;;;;;;3.13;1.67;;;;;;;16.34;42.75;155559.06;5060434;28;21002;-87
2023/03/18 11:13:01;;;;;;;3.47;1.93;;;;;;;16.28;42.73;155544.75;5058889;28;20446;-87
2023/03/18 11:15:28;;;;;;;2.67;1.40;;;;;;;16.20;44.70;155523.94;5042952;28;20519;-87
2023/03/18 11:17:58;;;;;;;2.57;1.50;;;;;;;16.31;42.87;155552.56;5057178;28;20465;-87
2023/03/18 11:20:36;;;;;;;3.13;1.67;;;;;;;16.41;41.53;155577.28;5058931;28;20480;-85
2023/03/18 11:23:11;;;;;;;2.87;1.47;;;;;;;16.42;41.55;155579.88;5060562;28;20445;-86
2023/03/18 11:25:40;;;;;;;2.70;1.60;;;;;;;16.53;40.17;155608.53;5040925;28;20457;-86
2023/03/18 11:28:19;;;;;;;1.83;1.20;;;;;;;16.42;41.04;155581.16;5040117;28;21052;-86
2023/03/18 11:30:49;;;;;;;2.90;1.53;;;;;;;16.45;43.34;155588.97;5030656;28;20444;-85
2023/03/18 11:33:17;;;;;;;2.27;1.50;;;;;;;16.34;41.69;155559.06;5060286;28;20453;-84
2023/03/18 11:35:46;;;;;;;2.27;1.40;;;;;;;16.40;40.73;155575.97;5058720;28;20530;-85
2023/03/18 11:38:18;;;;;;;2.40;1.30;;;;;;;16.29;41.58;155547.34;5064626;28;20450;-85